createdAt,value
2018-01-03T00:00:40.230Z,23
2018-01-03T00:01:48.315Z,23
2018-01-03T00:02:56.399Z,23
2018-01-03T00:04:04.506Z,23
2018-01-03T00:05:12.619Z,23
2018-01-03T00:06:20.706Z,23
2018-01-03T00:07:28.798Z,23
2018-01-03T00:08:36.952Z,23
2018-01-03T00:09:45.052Z,23
2018-01-03T00:10:53.993Z,22
2018-01-03T00:12:02.084Z,22
2018-01-03T00:13:10.169Z,23
2018-01-03T00:14:18.271Z,22
2018-01-03T00:15:26.365Z,22
2018-01-03T00:16:34.455Z,22
2018-01-03T00:17:42.543Z,22
2018-01-03T00:18:50.634Z,22
2018-01-03T00:19:58.725Z,22
2018-01-03T00:21:06.819Z,22
2018-01-03T00:22:14.915Z,23
2018-01-03T00:23:23.008Z,23
2018-01-03T00:24:31.086Z,22
2018-01-03T00:25:39.202Z,22
2018-01-03T00:26:47.284Z,22
2018-01-03T00:27:55.379Z,22
2018-01-03T00:29:03.451Z,23
2018-01-03T00:30:11.558Z,23
2018-01-03T00:31:19.638Z,22
2018-01-03T00:32:27.738Z,23
2018-01-03T00:33:35.829Z,23
2018-01-03T00:34:43.911Z,23
2018-01-03T00:35:52.005Z,23
2018-01-03T00:37:00.099Z,23
2018-01-03T00:38:08.212Z,23
2018-01-03T00:39:16.294Z,23
2018-01-03T00:40:24.410Z,23
2018-01-03T00:41:32.499Z,23
2018-01-03T00:42:40.603Z,23
2018-01-03T00:43:48.696Z,23
2018-01-03T00:44:56.778Z,23
2018-01-03T00:46:04.868Z,23
2018-01-03T00:47:12.957Z,23
2018-01-03T00:48:21.059Z,23
2018-01-03T00:49:29.142Z,23
2018-01-03T00:50:37.237Z,23
2018-01-03T00:51:45.325Z,23
2018-01-03T00:52:53.419Z,23
2018-01-03T00:54:01.510Z,23
2018-01-03T00:55:09.601Z,23
2018-01-03T00:56:17.685Z,23
2018-01-03T00:57:25.782Z,23
2018-01-03T00:58:33.864Z,23
2018-01-03T00:59:41.962Z,23
2018-01-03T01:00:50.049Z,23
2018-01-03T01:01:58.140Z,23
2018-01-03T01:03:06.244Z,23
2018-01-03T01:04:14.341Z,23
2018-01-03T01:05:22.436Z,23
2018-01-03T01:06:30.529Z,23
2018-01-03T01:07:38.627Z,23
2018-01-03T01:08:46.714Z,23
2018-01-03T01:09:54.804Z,23
2018-01-03T01:11:02.902Z,23
2018-01-03T01:12:11.014Z,23
2018-01-03T01:13:19.108Z,23
2018-01-03T01:14:27.211Z,23
2018-01-03T01:15:35.297Z,23
2018-01-03T01:16:43.399Z,23
2018-01-03T01:17:51.491Z,23
2018-01-03T01:18:59.579Z,23
2018-01-03T01:20:07.667Z,23
2018-01-03T01:21:15.759Z,23
2018-01-03T01:22:23.847Z,23
2018-01-03T01:23:31.948Z,23
2018-01-03T01:24:41.027Z,23
2018-01-03T01:25:48.123Z,23
2018-01-03T01:26:56.217Z,23
2018-01-03T01:28:04.331Z,23
2018-01-03T01:29:12.431Z,23
2018-01-03T01:30:20.529Z,23
2018-01-03T01:31:28.619Z,23
2018-01-03T01:32:36.708Z,23
2018-01-03T01:33:44.795Z,23
2018-01-03T01:34:52.884Z,23
2018-01-03T01:36:00.964Z,23
2018-01-03T01:37:09.113Z,22
2018-01-03T01:38:17.145Z,23
2018-01-03T01:39:25.240Z,23
2018-01-03T01:40:33.328Z,22
2018-01-03T01:41:41.432Z,22
2018-01-03T01:42:49.520Z,22
2018-01-03T01:43:57.605Z,22
2018-01-03T01:45:05.701Z,23
2018-01-03T01:46:13.795Z,22
2018-01-03T01:47:21.876Z,23
2018-01-03T01:48:29.973Z,23
2018-01-03T01:49:38.065Z,23
2018-01-03T01:50:46.169Z,23
2018-01-03T01:51:54.261Z,23
2018-01-03T01:53:02.354Z,23
2018-01-03T01:54:10.457Z,23
2018-01-03T01:55:18.551Z,23
2018-01-03T01:56:26.635Z,23
2018-01-03T01:57:34.736Z,23
2018-01-03T01:58:42.828Z,23
2018-01-03T01:59:50.916Z,23
2018-01-03T02:00:59.016Z,23
2018-01-03T02:02:07.116Z,23
2018-01-03T02:03:15.217Z,23
2018-01-03T02:04:23.299Z,23
2018-01-03T02:05:31.382Z,23
2018-01-03T02:06:39.482Z,23
2018-01-03T02:07:47.577Z,23
2018-01-03T02:08:55.660Z,23
2018-01-03T02:10:03.766Z,23
2018-01-03T02:11:11.853Z,23
2018-01-03T02:12:19.943Z,23
2018-01-03T02:13:28.048Z,23
2018-01-03T02:14:36.143Z,23
2018-01-03T02:15:44.239Z,23
2018-01-03T02:16:52.328Z,23
2018-01-03T02:18:00.419Z,23
2018-01-03T02:19:08.513Z,23
2018-01-03T02:20:16.597Z,23
2018-01-03T02:21:24.693Z,23
2018-01-03T02:22:32.775Z,23
2018-01-03T02:23:40.868Z,23
2018-01-03T02:24:48.969Z,23
2018-01-03T02:25:57.051Z,23
2018-01-03T02:27:05.137Z,23
2018-01-03T02:28:13.236Z,23
2018-01-03T02:29:21.322Z,23
2018-01-03T02:30:29.410Z,23
2018-01-03T02:31:38.509Z,23
2018-01-03T02:32:46.600Z,23
2018-01-03T02:33:54.756Z,23
2018-01-03T02:35:02.854Z,23
2018-01-03T02:36:10.948Z,23
2018-01-03T02:37:19.047Z,23
2018-01-03T02:38:27.149Z,23
2018-01-03T02:39:35.212Z,23
2018-01-03T02:40:43.303Z,23
2018-01-03T02:41:51.398Z,23
2018-01-03T02:42:59.497Z,23
2018-01-03T02:44:07.583Z,23
2018-01-03T02:45:15.672Z,23
2018-01-03T02:46:23.767Z,23
2018-01-03T02:47:31.857Z,23
2018-01-03T02:48:39.945Z,23
2018-01-03T02:49:48.041Z,23
2018-01-03T02:50:56.139Z,23
2018-01-03T02:52:04.227Z,23
2018-01-03T02:53:12.333Z,23
2018-01-03T02:54:20.429Z,23
2018-01-03T02:55:28.520Z,23
2018-01-03T02:56:36.598Z,23
2018-01-03T02:57:44.693Z,23
2018-01-03T02:58:52.771Z,23
2018-01-03T03:00:02.414Z,23
2018-01-03T03:01:08.947Z,23
2018-01-03T03:02:17.037Z,23
2018-01-03T03:03:25.123Z,23
2018-01-03T03:04:33.275Z,23
2018-01-03T03:05:41.375Z,23
2018-01-03T03:06:49.474Z,23
2018-01-03T03:07:57.563Z,23
2018-01-03T03:09:05.649Z,23
2018-01-03T03:10:13.747Z,23
2018-01-03T03:11:21.841Z,23
2018-01-03T03:12:29.926Z,23
2018-01-03T03:13:38.022Z,23
2018-01-03T03:14:46.119Z,24
2018-01-03T03:15:54.201Z,23
2018-01-03T03:17:02.299Z,23
2018-01-03T03:18:10.929Z,23
2018-01-03T03:19:19.008Z,24
2018-01-03T03:20:27.100Z,23
2018-01-03T03:21:35.181Z,23
2018-01-03T03:22:43.277Z,23
2018-01-03T03:23:51.367Z,23
2018-01-03T03:24:59.448Z,23
2018-01-03T03:26:07.547Z,23
2018-01-03T03:27:15.633Z,24
2018-01-03T03:28:23.721Z,23
2018-01-03T03:29:31.801Z,23
2018-01-03T03:30:39.897Z,23
2018-01-03T03:31:47.978Z,23
2018-01-03T03:32:56.074Z,23
2018-01-03T03:34:04.171Z,23
2018-01-03T03:35:12.265Z,23
2018-01-03T03:36:20.349Z,23
2018-01-03T03:37:28.430Z,23
2018-01-03T03:38:36.519Z,23
2018-01-03T03:39:44.608Z,23
2018-01-03T03:40:52.702Z,23
2018-01-03T03:42:00.796Z,23
2018-01-03T03:43:08.893Z,23
2018-01-03T03:44:16.994Z,23
2018-01-03T03:45:25.086Z,23
2018-01-03T03:46:33.176Z,23
2018-01-03T03:47:41.257Z,23
2018-01-03T03:48:49.358Z,23
2018-01-03T03:49:57.449Z,23
2018-01-03T03:51:05.530Z,23
2018-01-03T03:52:13.625Z,23
2018-01-03T03:53:21.710Z,23
2018-01-03T03:54:29.798Z,23
2018-01-03T03:55:37.889Z,23
2018-01-03T03:56:45.971Z,23
2018-01-03T03:57:54.081Z,23
2018-01-03T03:59:02.163Z,23
2018-01-03T04:00:10.261Z,23
2018-01-03T04:01:18.365Z,24
2018-01-03T04:02:26.448Z,24
2018-01-03T04:03:34.555Z,24
2018-01-03T04:04:42.718Z,24
2018-01-03T04:05:50.798Z,24
2018-01-03T04:06:58.926Z,24
2018-01-03T04:08:06.984Z,24
2018-01-03T04:09:15.077Z,24
2018-01-03T04:10:23.189Z,24
2018-01-03T04:11:31.290Z,24
2018-01-03T04:12:39.386Z,24
2018-01-03T04:13:47.472Z,24
2018-01-03T04:14:55.560Z,24
2018-01-03T04:16:03.659Z,24
2018-01-03T04:17:11.738Z,24
2018-01-03T04:18:19.828Z,24
2018-01-03T04:19:27.914Z,24
2018-01-03T04:20:36.007Z,24
2018-01-03T04:21:44.101Z,24
2018-01-03T04:22:52.205Z,24
2018-01-03T04:24:00.299Z,24
2018-01-03T04:25:09.057Z,24
2018-01-03T04:26:17.149Z,24
2018-01-03T04:27:25.241Z,24
2018-01-03T04:28:33.327Z,24
2018-01-03T04:29:41.412Z,24
2018-01-03T04:30:49.497Z,24
2018-01-03T04:31:58.001Z,24
2018-01-03T04:33:06.114Z,24
2018-01-03T04:34:14.178Z,24
2018-01-03T04:35:22.265Z,24
2018-01-03T04:36:30.358Z,24
2018-01-03T04:37:38.442Z,24
2018-01-03T04:38:46.531Z,24
2018-01-03T04:39:54.629Z,24
2018-01-03T04:41:02.715Z,24
2018-01-03T04:42:10.801Z,24
2018-01-03T04:43:18.882Z,24
2018-01-03T04:44:26.982Z,24
2018-01-03T04:45:35.088Z,24
2018-01-03T04:46:43.162Z,24
2018-01-03T04:47:51.250Z,24
2018-01-03T04:48:59.337Z,24
2018-01-03T04:50:07.423Z,24
2018-01-03T04:51:15.512Z,24
2018-01-03T04:52:23.612Z,24
2018-01-03T04:53:31.684Z,24
2018-01-03T04:54:39.774Z,24
2018-01-03T04:55:47.866Z,24
2018-01-03T04:56:55.952Z,24
2018-01-03T04:58:04.036Z,24
2018-01-03T04:59:12.127Z,24
2018-01-03T05:00:20.218Z,24
2018-01-03T05:01:28.440Z,24
2018-01-03T05:02:36.531Z,24
2018-01-03T05:03:44.629Z,24
2018-01-03T05:04:52.710Z,24
2018-01-03T05:06:00.801Z,24
2018-01-03T05:07:08.901Z,24
2018-01-03T05:08:16.989Z,24
2018-01-03T05:09:25.076Z,24
2018-01-03T05:10:33.814Z,24
2018-01-03T05:11:41.899Z,24
2018-01-03T05:12:49.987Z,24
2018-01-03T05:13:58.089Z,24
2018-01-03T05:15:06.177Z,24
2018-01-03T05:16:14.278Z,24
2018-01-03T05:17:22.368Z,24
2018-01-03T05:18:30.454Z,24
2018-01-03T05:19:38.542Z,24
2018-01-03T05:20:46.624Z,24
2018-01-03T05:21:54.716Z,24
2018-01-03T05:23:02.803Z,24
2018-01-03T05:24:10.896Z,25
2018-01-03T05:25:18.998Z,24
2018-01-03T05:26:27.085Z,24
2018-01-03T05:27:35.173Z,24
2018-01-03T05:28:43.263Z,24
2018-01-03T05:29:51.349Z,24
2018-01-03T05:30:59.440Z,25
2018-01-03T05:32:07.539Z,24
2018-01-03T05:33:15.684Z,24
2018-01-03T05:34:23.709Z,25
2018-01-03T05:35:31.803Z,25
2018-01-03T05:36:39.896Z,25
2018-01-03T05:37:47.980Z,24
2018-01-03T05:38:56.070Z,25
2018-01-03T05:40:04.156Z,25
2018-01-03T05:41:12.243Z,25
2018-01-03T05:42:20.326Z,25
2018-01-03T05:43:28.419Z,24
2018-01-03T05:44:36.518Z,25
2018-01-03T05:45:44.603Z,25
2018-01-03T05:46:52.688Z,25
2018-01-03T05:48:00.781Z,25
2018-01-03T05:49:08.873Z,25
2018-01-03T05:50:16.956Z,25
2018-01-03T05:51:25.059Z,25
2018-01-03T05:52:33.148Z,25
2018-01-03T05:53:41.248Z,25
2018-01-03T05:54:49.337Z,25
2018-01-03T05:55:57.422Z,25
2018-01-03T05:57:05.509Z,25
2018-01-03T05:58:13.601Z,25
2018-01-03T05:59:21.700Z,25
2018-01-03T06:00:29.788Z,25
2018-01-03T06:01:37.920Z,25
2018-01-03T06:02:45.966Z,25
2018-01-03T06:03:54.052Z,25
2018-01-03T06:05:02.147Z,25
2018-01-03T06:06:10.246Z,25
2018-01-03T06:07:18.327Z,25
2018-01-03T06:08:26.429Z,25
2018-01-03T06:09:34.521Z,25
2018-01-03T06:10:42.602Z,25
2018-01-03T06:11:50.699Z,25
2018-01-03T06:12:58.798Z,25
2018-01-03T06:14:06.892Z,25
2018-01-03T06:15:14.969Z,25
2018-01-03T06:16:23.055Z,25
2018-01-03T06:17:31.146Z,25
2018-01-03T06:18:39.238Z,26
2018-01-03T06:19:47.325Z,25
2018-01-03T06:20:55.412Z,25
2018-01-03T06:22:03.510Z,25
2018-01-03T06:23:11.627Z,26
2018-01-03T06:24:19.702Z,26
2018-01-03T06:25:27.797Z,26
2018-01-03T06:26:35.920Z,26
2018-01-03T06:27:43.983Z,25
2018-01-03T06:28:52.226Z,25
2018-01-03T06:30:00.508Z,26
2018-01-03T06:31:08.588Z,25
2018-01-03T06:32:16.669Z,25
2018-01-03T06:33:24.772Z,25
2018-01-03T06:34:32.858Z,26
2018-01-03T06:35:40.954Z,25
2018-01-03T06:36:49.064Z,25
2018-01-03T06:37:57.156Z,26
2018-01-03T06:39:05.252Z,26
2018-01-03T06:40:13.342Z,26
2018-01-03T06:41:21.420Z,26
2018-01-03T06:42:29.517Z,26
2018-01-03T06:43:37.602Z,26
2018-01-03T06:44:45.699Z,26
2018-01-03T06:45:53.800Z,26
2018-01-03T06:47:01.883Z,26
2018-01-03T06:48:09.968Z,26
2018-01-03T06:49:18.053Z,26
2018-01-03T06:50:26.146Z,26
2018-01-03T06:51:34.235Z,26
2018-01-03T06:52:42.333Z,26
2018-01-03T06:53:50.429Z,26
2018-01-03T06:54:58.522Z,26
2018-01-03T06:56:06.619Z,26
2018-01-03T06:57:14.696Z,26
2018-01-03T06:58:22.786Z,26
2018-01-03T06:59:30.875Z,26
2018-01-03T07:00:38.961Z,26
2018-01-03T07:01:47.050Z,26
2018-01-03T07:02:55.153Z,26
2018-01-03T07:04:03.221Z,26
2018-01-03T07:05:11.299Z,26
2018-01-03T07:06:19.394Z,26
2018-01-03T07:07:27.492Z,26
2018-01-03T07:08:35.588Z,26
2018-01-03T07:09:43.670Z,26
2018-01-03T07:10:51.761Z,26
2018-01-03T07:11:59.839Z,26
2018-01-03T07:13:07.932Z,26
2018-01-03T07:14:16.029Z,26
2018-01-03T07:15:24.118Z,26
2018-01-03T07:16:32.204Z,26
2018-01-03T07:17:40.293Z,26
2018-01-03T07:18:48.390Z,26
2018-01-03T07:19:56.465Z,26
2018-01-03T07:21:04.558Z,26
2018-01-03T07:22:12.715Z,26
2018-01-03T07:23:20.750Z,26
2018-01-03T07:24:28.829Z,26
2018-01-03T07:25:36.925Z,26
2018-01-03T07:26:45.003Z,26
2018-01-03T07:27:53.093Z,26
2018-01-03T07:29:01.187Z,26
2018-01-03T07:30:09.315Z,26
2018-01-03T07:31:17.365Z,26
2018-01-03T07:32:25.452Z,26
2018-01-03T07:33:33.543Z,26
2018-01-03T07:34:41.628Z,26
2018-01-03T07:35:49.728Z,26
2018-01-03T07:36:57.815Z,27
2018-01-03T07:38:05.895Z,26
2018-01-03T07:39:13.989Z,26
2018-01-03T07:40:22.770Z,26
2018-01-03T07:41:30.858Z,26
2018-01-03T07:42:38.939Z,26
2018-01-03T07:43:47.021Z,26
2018-01-03T07:44:55.136Z,26
2018-01-03T07:46:03.217Z,26
2018-01-03T07:47:11.303Z,27
2018-01-03T07:48:21.763Z,26
2018-01-03T07:49:30.078Z,26
2018-01-03T07:50:38.169Z,26
2018-01-03T07:51:46.927Z,26
2018-01-03T07:52:55.018Z,26
2018-01-03T07:54:03.104Z,26
2018-01-03T07:55:11.200Z,26
2018-01-03T07:56:19.284Z,26
2018-01-03T07:57:27.380Z,26
2018-01-03T07:58:35.466Z,26
2018-01-03T07:59:43.552Z,26
2018-01-03T08:00:51.644Z,27
2018-01-03T08:01:59.728Z,27
2018-01-03T08:03:07.827Z,27
2018-01-03T08:04:15.909Z,27
2018-01-03T08:05:23.994Z,27
2018-01-03T08:06:32.102Z,27
2018-01-03T08:07:40.188Z,27
2018-01-03T08:08:48.296Z,27
2018-01-03T08:09:56.540Z,28
2018-01-03T08:11:04.450Z,27
2018-01-03T08:12:12.540Z,27
2018-01-03T08:13:20.621Z,27
2018-01-03T08:14:28.776Z,27
2018-01-03T08:15:36.999Z,27
2018-01-03T08:16:44.889Z,27
2018-01-03T08:17:52.974Z,28
2018-01-03T08:19:01.063Z,28
2018-01-03T08:20:09.150Z,28
2018-01-03T08:21:17.242Z,28
2018-01-03T08:22:25.334Z,28
2018-01-03T08:23:33.411Z,28
2018-01-03T08:24:41.507Z,28
2018-01-03T08:25:49.588Z,28
2018-01-03T08:26:57.684Z,28
2018-01-03T08:28:05.772Z,28
2018-01-03T08:29:13.853Z,28
2018-01-03T08:30:21.929Z,28
2018-01-03T08:31:30.034Z,28
2018-01-03T08:32:38.113Z,28
2018-01-03T08:33:46.198Z,28
2018-01-03T08:34:54.293Z,28
2018-01-03T08:36:02.431Z,28
2018-01-03T08:37:10.492Z,28
2018-01-03T08:38:18.571Z,28
2018-01-03T08:39:26.656Z,28
2018-01-03T08:40:34.743Z,28
2018-01-03T08:41:43.065Z,28
2018-01-03T08:42:50.919Z,29
2018-01-03T08:43:59.140Z,29
2018-01-03T08:45:07.269Z,28
2018-01-03T08:46:15.188Z,28
2018-01-03T08:47:23.291Z,28
2018-01-03T08:48:31.380Z,28
2018-01-03T08:49:39.476Z,28
2018-01-03T08:50:47.569Z,28
2018-01-03T08:51:55.650Z,28
2018-01-03T08:53:03.742Z,28
2018-01-03T08:54:11.828Z,28
2018-01-03T08:55:19.922Z,28
2018-01-03T08:56:28.012Z,28
2018-01-03T08:57:36.101Z,28
2018-01-03T08:58:44.196Z,28
2018-01-03T08:59:52.293Z,28
2018-01-03T09:01:00.378Z,28
2018-01-03T09:02:08.477Z,28
2018-01-03T09:03:16.560Z,28
2018-01-03T09:04:24.656Z,28
2018-01-03T09:05:32.742Z,28
2018-01-03T09:06:40.994Z,28
2018-01-03T09:07:48.906Z,28
2018-01-03T09:08:57.001Z,28
2018-01-03T09:10:05.092Z,29
2018-01-03T09:11:13.187Z,29
2018-01-03T09:12:21.271Z,29
2018-01-03T09:13:29.371Z,29
2018-01-03T09:14:37.457Z,28
2018-01-03T09:15:45.544Z,29
2018-01-03T09:16:53.631Z,29
2018-01-03T09:18:01.733Z,29
2018-01-03T09:19:09.826Z,29
2018-01-03T09:20:17.918Z,29
2018-01-03T09:21:25.998Z,29
2018-01-03T09:22:34.084Z,29
2018-01-03T09:23:42.176Z,29
2018-01-03T09:24:50.711Z,29
2018-01-03T09:25:58.355Z,29
2018-01-03T09:27:06.448Z,29
2018-01-03T09:28:14.528Z,29
2018-01-03T09:29:22.612Z,29
2018-01-03T09:30:30.700Z,29
2018-01-03T09:31:38.788Z,29
2018-01-03T09:32:46.885Z,29
2018-01-03T09:35:03.079Z,29
2018-01-03T09:36:11.151Z,29
2018-01-03T09:37:19.233Z,29
2018-01-03T09:38:27.317Z,29
2018-01-03T09:39:35.413Z,29
2018-01-03T09:40:43.500Z,29
2018-01-03T09:41:51.587Z,29
2018-01-03T09:42:59.678Z,29
2018-01-03T09:44:07.771Z,29
2018-01-03T09:45:15.857Z,30
2018-01-03T09:46:23.949Z,30
2018-01-03T09:47:32.047Z,30
2018-01-03T09:48:40.123Z,30
2018-01-03T09:49:48.216Z,30
2018-01-03T09:50:56.365Z,30
2018-01-03T09:52:04.409Z,30
2018-01-03T09:53:12.509Z,30
2018-01-03T09:54:20.591Z,30
2018-01-03T09:55:28.681Z,30
2018-01-03T09:56:36.771Z,30
2018-01-03T09:57:44.868Z,31
2018-01-03T09:58:52.963Z,30
2018-01-03T10:00:02.426Z,31
2018-01-03T10:01:09.133Z,31
2018-01-03T10:02:17.452Z,30
2018-01-03T10:03:25.347Z,31
2018-01-03T10:04:33.415Z,31
2018-01-03T10:05:41.492Z,30
2018-01-03T10:06:49.580Z,31
2018-01-03T10:07:57.681Z,30
2018-01-03T10:09:05.777Z,31
2018-01-03T10:10:13.842Z,31
2018-01-03T10:11:21.930Z,31
2018-01-03T10:12:30.015Z,31
2018-01-03T10:13:38.100Z,31
2018-01-03T10:14:46.202Z,31
2018-01-03T10:15:54.298Z,31
2018-01-03T10:17:02.384Z,31
2018-01-03T10:18:10.705Z,31
2018-01-03T10:19:18.708Z,31
2018-01-03T10:20:26.654Z,31
2018-01-03T10:21:34.746Z,31
2018-01-03T10:22:42.839Z,31
2018-01-03T10:23:50.928Z,31
2018-01-03T10:24:59.018Z,31
2018-01-03T10:26:07.122Z,31
2018-01-03T10:27:15.208Z,31
2018-01-03T10:28:23.300Z,31
2018-01-03T10:29:31.644Z,31
2018-01-03T10:30:39.617Z,31
2018-01-03T10:31:47.708Z,31
2018-01-03T10:32:55.810Z,31
2018-01-03T10:34:03.898Z,31
2018-01-03T10:35:11.977Z,31
2018-01-03T10:36:20.072Z,31
2018-01-03T10:37:28.163Z,31
2018-01-03T10:38:36.257Z,31
2018-01-03T10:39:44.355Z,31
2018-01-03T10:40:52.432Z,31
2018-01-03T10:42:00.517Z,31
2018-01-03T10:43:08.612Z,31
2018-01-03T10:44:16.707Z,31
2018-01-03T10:45:24.798Z,31
2018-01-03T10:46:33.023Z,31
2018-01-03T10:47:41.205Z,31
2018-01-03T10:48:49.301Z,30
2018-01-03T10:49:57.379Z,31
2018-01-03T10:51:05.452Z,31
2018-01-03T10:52:13.563Z,31
2018-01-03T10:53:21.448Z,30
2018-01-03T10:54:29.552Z,30
2018-01-03T10:55:43.224Z,31
2018-01-03T10:56:51.317Z,31
2018-01-03T10:58:01.519Z,31
2018-01-03T10:59:09.611Z,31
2018-01-03T11:00:17.704Z,31
2018-01-03T11:01:25.786Z,31
2018-01-03T11:02:33.873Z,31
2018-01-03T11:03:41.961Z,30
2018-01-03T11:04:50.053Z,30
2018-01-03T11:05:58.239Z,31
2018-01-03T11:07:06.339Z,30
2018-01-03T11:08:14.439Z,31
2018-01-03T11:09:22.533Z,30
2018-01-03T11:10:30.619Z,30
2018-01-03T11:11:38.707Z,30
2018-01-03T11:12:46.798Z,30
2018-01-03T11:13:54.902Z,30
2018-01-03T11:15:02.993Z,30
2018-01-03T11:16:11.091Z,30
2018-01-03T11:17:19.185Z,30
2018-01-03T11:18:27.298Z,30
2018-01-03T11:19:42.674Z,30
2018-01-03T11:20:50.770Z,30
2018-01-03T11:21:59.105Z,30
2018-01-03T11:23:07.138Z,30
2018-01-03T11:24:15.249Z,30
2018-01-03T11:25:23.177Z,30
2018-01-03T11:26:37.906Z,30
2018-01-03T11:27:51.354Z,30
2018-01-03T11:28:54.533Z,30
2018-01-03T11:30:02.541Z,30
2018-01-03T11:31:24.739Z,30
2018-01-03T11:32:37.339Z,30
2018-01-03T11:33:45.427Z,30
2018-01-03T11:34:53.529Z,30
2018-01-03T11:36:01.813Z,30
2018-01-03T11:37:09.900Z,30
2018-01-03T11:38:17.989Z,30
2018-01-03T11:39:26.084Z,30
2018-01-03T11:40:34.177Z,30
2018-01-03T11:41:42.263Z,30
2018-01-03T11:42:50.361Z,30
2018-01-03T11:43:58.453Z,30
2018-01-03T11:45:06.536Z,29
2018-01-03T11:46:14.629Z,29
2018-01-03T11:47:22.715Z,29
2018-01-03T11:48:30.806Z,29
2018-01-03T11:49:38.899Z,29
2018-01-03T11:50:46.986Z,29
2018-01-03T11:51:55.077Z,29
2018-01-03T11:53:03.164Z,29
2018-01-03T11:54:11.253Z,29
2018-01-03T11:55:19.343Z,29
2018-01-03T11:56:27.431Z,29
2018-01-03T11:57:36.656Z,29
2018-01-03T11:58:44.738Z,29
2018-01-03T11:59:52.935Z,29
2018-01-03T12:01:00.913Z,29
2018-01-03T12:02:09.000Z,29
2018-01-03T12:03:17.085Z,29
2018-01-03T12:04:25.172Z,29
2018-01-03T12:05:33.262Z,29
2018-01-03T12:06:41.353Z,29
2018-01-03T12:07:49.446Z,29
2018-01-03T12:08:57.527Z,29
2018-01-03T12:10:05.613Z,29
2018-01-03T12:11:13.711Z,29
2018-01-03T12:12:21.870Z,29
2018-01-03T12:13:29.956Z,29
2018-01-03T12:14:38.043Z,29
2018-01-03T12:15:46.124Z,29
2018-01-03T12:16:54.213Z,29
2018-01-03T12:18:02.300Z,29
2018-01-03T12:19:10.388Z,29
2018-01-03T12:20:18.482Z,29
2018-01-03T12:21:26.578Z,29
2018-01-03T12:22:34.769Z,29
2018-01-03T12:23:42.752Z,29
2018-01-03T12:24:50.834Z,29
2018-01-03T12:25:58.987Z,29
2018-01-03T12:27:07.012Z,29
2018-01-03T12:28:15.102Z,29
2018-01-03T12:29:23.184Z,29
2018-01-03T12:30:31.266Z,29
2018-01-03T12:31:39.373Z,29
2018-01-03T12:32:47.438Z,29
2018-01-03T12:33:55.526Z,29
2018-01-03T12:35:04.469Z,29
2018-01-03T12:36:11.701Z,29
2018-01-03T12:37:20.593Z,29
2018-01-03T12:38:28.688Z,29
2018-01-03T12:39:36.770Z,29
2018-01-03T12:40:44.979Z,29
2018-01-03T12:41:53.132Z,29
2018-01-03T12:43:01.256Z,29
2018-01-03T12:44:09.305Z,29
2018-01-03T12:45:17.368Z,30
2018-01-03T12:46:25.327Z,29
2018-01-03T12:47:38.127Z,30
2018-01-03T12:48:46.268Z,30
2018-01-03T12:49:54.311Z,30
2018-01-03T12:51:02.387Z,30
2018-01-03T12:52:10.478Z,30
2018-01-03T12:53:18.762Z,30
2018-01-03T12:54:26.649Z,30
2018-01-03T12:55:35.275Z,30
2018-01-03T12:56:45.201Z,30
2018-01-03T12:57:53.296Z,30
2018-01-03T12:59:01.379Z,30
2018-01-03T13:00:09.470Z,30
2018-01-03T13:01:17.578Z,30
2018-01-03T13:02:25.651Z,30
2018-01-03T13:03:33.744Z,30
2018-01-03T13:04:41.828Z,30
2018-01-03T13:05:50.728Z,30
2018-01-03T13:06:58.819Z,30
2018-01-03T13:08:07.318Z,30
2018-01-03T13:09:15.407Z,30
2018-01-03T13:10:23.492Z,30
2018-01-03T13:11:31.590Z,30
2018-01-03T13:12:39.674Z,30
2018-01-03T13:13:47.765Z,30
2018-01-03T13:14:55.850Z,30
2018-01-03T13:16:04.025Z,30
2018-01-03T13:17:12.107Z,30
2018-01-03T13:18:20.196Z,30
2018-01-03T13:19:28.276Z,30
2018-01-03T13:20:36.367Z,30
2018-01-03T13:21:44.454Z,30
2018-01-03T13:22:52.544Z,30
2018-01-03T13:24:05.641Z,30
2018-01-03T13:25:12.216Z,30
2018-01-03T13:26:20.308Z,30
2018-01-03T13:27:28.399Z,30
2018-01-03T13:28:36.486Z,30
2018-01-03T13:29:44.578Z,30
2018-01-03T13:30:52.657Z,30
2018-01-03T13:32:00.746Z,30
2018-01-03T13:33:08.831Z,30
2018-01-03T13:34:16.918Z,30
2018-01-03T13:35:25.010Z,30
2018-01-03T13:36:33.097Z,30
2018-01-03T13:37:41.188Z,30
2018-01-03T13:38:49.280Z,30
2018-01-03T13:39:57.371Z,30
2018-01-03T13:41:05.462Z,30
2018-01-03T13:42:13.557Z,30
2018-01-03T13:43:21.862Z,30
2018-01-03T13:44:29.949Z,30
2018-01-03T13:45:38.033Z,30
2018-01-03T13:46:46.120Z,30
2018-01-03T13:47:54.211Z,30
2018-01-03T13:49:02.591Z,30
2018-01-03T13:50:10.428Z,30
2018-01-03T13:51:18.514Z,30
2018-01-03T13:52:26.598Z,30
2018-01-03T13:53:34.688Z,31
2018-01-03T13:54:42.774Z,30
2018-01-03T13:55:50.949Z,30
2018-01-03T13:57:06.207Z,30
2018-01-03T13:58:14.441Z,30
2018-01-03T13:59:24.358Z,31
2018-01-03T14:00:32.452Z,30
2018-01-03T14:01:40.535Z,30
2018-01-03T14:02:48.637Z,30
2018-01-03T14:03:56.726Z,30
2018-01-03T14:05:05.060Z,30
2018-01-03T14:06:13.170Z,30
2018-01-03T14:07:21.265Z,30
2018-01-03T14:08:29.354Z,30
2018-01-03T14:09:37.452Z,30
2018-01-03T14:10:45.743Z,30
2018-01-03T14:11:57.607Z,30
2018-01-03T14:13:05.689Z,30
2018-01-03T14:14:13.776Z,30
2018-01-03T14:15:21.865Z,30
2018-01-03T14:16:29.958Z,30
2018-01-03T14:17:38.048Z,30
2018-01-03T14:18:46.134Z,30
2018-01-03T14:19:54.225Z,30
2018-01-03T14:21:02.336Z,30
2018-01-03T14:22:10.428Z,30
2018-01-03T14:23:18.671Z,30
2018-01-03T14:24:26.723Z,30
2018-01-03T14:25:34.808Z,30
2018-01-03T14:26:42.899Z,30
2018-01-03T14:27:50.982Z,30
2018-01-03T14:28:59.075Z,30
2018-01-03T14:30:07.168Z,30
2018-01-03T14:31:15.259Z,30
2018-01-03T14:32:25.779Z,30
2018-01-03T14:33:34.473Z,30
2018-01-03T14:34:42.564Z,30
2018-01-03T14:35:50.661Z,30
2018-01-03T14:36:58.751Z,31
2018-01-03T14:38:06.912Z,31
2018-01-03T14:39:17.553Z,31
2018-01-03T14:40:25.640Z,31
2018-01-03T14:41:33.724Z,30
2018-01-03T14:42:41.812Z,31
2018-01-03T14:43:49.903Z,31
2018-01-03T14:44:58.247Z,31
2018-01-03T14:46:06.328Z,30
2018-01-03T14:47:14.416Z,30
2018-01-03T14:48:22.502Z,30
2018-01-03T14:49:30.586Z,30
2018-01-03T14:50:38.676Z,31
2018-01-03T14:51:46.760Z,30
2018-01-03T14:52:54.847Z,30
2018-01-03T14:54:02.955Z,30
2018-01-03T14:55:11.025Z,30
2018-01-03T14:56:19.114Z,30
2018-01-03T14:57:27.195Z,30
2018-01-03T14:58:35.308Z,30
2018-01-03T14:59:43.383Z,30
2018-01-03T15:00:51.461Z,31
2018-01-03T15:01:59.548Z,30
2018-01-03T15:03:07.635Z,30
2018-01-03T15:04:15.721Z,30
2018-01-03T15:05:23.808Z,30
2018-01-03T15:06:31.916Z,30
2018-01-03T15:07:39.992Z,30
2018-01-03T15:08:48.084Z,30
2018-01-03T15:09:56.403Z,30
2018-01-03T15:11:04.497Z,30
2018-01-03T15:12:12.578Z,30
2018-01-03T15:13:20.669Z,30
2018-01-03T15:14:28.695Z,30
2018-01-03T15:15:36.813Z,30
2018-01-03T15:16:44.915Z,30
2018-01-03T15:17:52.949Z,30
2018-01-03T15:19:00.879Z,30
2018-01-03T15:20:09.149Z,30
2018-01-03T15:21:17.238Z,30
2018-01-03T15:22:25.143Z,30
2018-01-03T15:23:33.285Z,30
2018-01-03T15:24:41.329Z,30
2018-01-03T15:25:49.406Z,30
2018-01-03T15:26:57.502Z,30
2018-01-03T15:28:05.612Z,30
2018-01-03T15:29:13.692Z,30
2018-01-03T15:30:21.812Z,30
2018-01-03T15:31:29.895Z,30
2018-01-03T15:32:37.969Z,30
2018-01-03T15:33:46.061Z,30
2018-01-03T15:34:54.158Z,30
2018-01-03T15:36:02.259Z,29
2018-01-03T15:37:10.338Z,30
2018-01-03T15:38:18.423Z,30
2018-01-03T15:39:26.528Z,29
2018-01-03T15:40:34.598Z,29
2018-01-03T15:41:42.696Z,29
2018-01-03T15:42:50.771Z,29
2018-01-03T15:43:58.867Z,29
2018-01-03T15:45:06.967Z,29
2018-01-03T15:46:15.059Z,29
2018-01-03T15:47:23.151Z,29
2018-01-03T15:48:31.243Z,29
2018-01-03T15:49:39.345Z,29
2018-01-03T15:50:47.419Z,29
2018-01-03T15:51:55.518Z,29
2018-01-03T15:53:03.615Z,29
2018-01-03T15:54:11.705Z,29
2018-01-03T15:55:19.803Z,29
2018-01-03T15:56:27.917Z,29
2018-01-03T15:57:36.000Z,29
2018-01-03T15:58:44.092Z,29
2018-01-03T15:59:52.177Z,29
2018-01-03T16:01:00.274Z,29
2018-01-03T16:02:08.359Z,29
2018-01-03T16:03:16.449Z,29
2018-01-03T16:04:24.552Z,29
2018-01-03T16:05:32.627Z,29
2018-01-03T16:06:40.716Z,29
2018-01-03T16:07:48.807Z,29
2018-01-03T16:08:56.904Z,29
2018-01-03T16:10:04.987Z,29
2018-01-03T16:11:14.858Z,29
2018-01-03T16:12:22.955Z,29
2018-01-03T16:13:31.038Z,29